Time;durP1;ratioP1;P1;durP2;ratioP2;P2;SDS_P1;SDS_P2;PMS_P1;PMS_P2;Temp;Humidity;BMP_temperature;BMP_pressure;BME280_temperature;BME280_humidity;BME280_pressure;Samples;Min_cycle;Max_cycle;Signal;HPM_P1;HPM_P2
2021/12/04 00:00:12;;;;;;;0.67;0.57;;;;;;;3.67;71.88;95273.59;5012068;28;20235;-70
2021/12/04 00:02:40;;;;;;;1.60;1.00;;;;;;;3.76;73.55;95279.66;5011718;28;20207;-70
2021/12/04 00:05:08;;;;;;;1.70;1.07;;;;;;;3.55;73.62;95265.41;5011946;28;20700;-71
2021/12/04 00:07:36;;;;;;;0.63;0.63;;;;;;;3.49;74.40;95266.03;5011806;28;20206;-70
2021/12/04 00:10:04;;;;;;;0.57;0.57;;;;;;;3.52;74.34;95250.13;5012046;28;20228;-70
2021/12/04 00:12:32;;;;;;;2.17;1.17;;;;;;;3.39;74.73;95241.94;5011536;28;20214;-70
2021/12/04 00:14:59;;;;;;;0.50;0.50;;;;;;;3.34;75.34;95246.81;5011903;28;20294;-70
2021/12/04 00:17:26;;;;;;;0.30;0.30;;;;;;;3.00;75.79;95234.78;5011497;28;20211;-69
2021/12/04 00:19:54;;;;;;;3.10;1.20;;;;;;;3.36;76.09;95221.41;5010329;28;20233;-69
2021/12/04 00:22:21;;;;;;;3.83;1.13;;;;;;;3.55;76.89;95221.16;5011378;28;20212;-69
2021/12/04 00:24:48;;;;;;;2.23;0.80;;;;;;;3.56;75.65;95222.78;5018749;28;20220;-69
2021/12/04 00:27:14;;;;;;;0.83;0.83;;;;;;;3.48;74.62;95225.38;5006418;28;20210;-69
2021/12/04 00:29:41;;;;;;;1.70;1.53;;;;;;;3.51;74.50;95217.22;5001949;28;20586;-69
2021/12/04 00:32:12;;;;;;;0.40;0.40;;;;;;;3.50;73.70;95207.78;5011134;28;20216;-69
2021/12/04 00:34:41;;;;;;;0.30;0.30;;;;;;;3.59;73.62;95207.66;5016574;28;20580;-69
2021/12/04 00:51:07;;;;;;;0.70;0.70;;;;;;;3.68;73.63;95186.66;5011189;28;20237;-69
2021/12/04 00:53:36;;;;;;;0.37;0.37;;;;;;;3.86;72.33;95183.94;5010841;28;20213;-69
2021/12/04 00:56:02;;;;;;;0.93;0.77;;;;;;;3.61;71.54;95178.84;5011997;28;20202;-69
2021/12/04 00:58:29;;;;;;;0.30;0.30;;;;;;;3.63;73.84;95178.50;5010926;28;20214;-69
2021/12/04 01:00:55;;;;;;;1.17;0.90;;;;;;;3.55;73.02;95171.66;5015036;28;20859;-69
2021/12/04 01:03:22;;;;;;;1.70;0.77;;;;;;;3.62;73.35;95163.06;5014547;28;20213;-69
2021/12/04 01:05:48;;;;;;;0.93;0.93;;;;;;;3.78;72.65;95166.50;5011418;28;20206;-69
2021/12/04 01:08:15;;;;;;;1.50;1.07;;;;;;;3.77;72.72;95159.66;5010764;28;20211;-69
2021/12/04 01:10:43;;;;;;;0.50;0.50;;;;;;;4.04;71.89;95161.13;5010710;28;20234;-69
2021/12/04 01:13:11;;;;;;;0.60;0.60;;;;;;;3.82;71.57;95152.16;5010007;28;20210;-69
2021/12/04 01:15:38;;;;;;;0.47;0.47;;;;;;;3.91;72.49;95161.59;5010842;28;20213;-69
2021/12/04 01:18:05;;;;;;;0.60;0.60;;;;;;;3.63;71.00;95152.47;5009818;28;20205;-69
2021/12/04 01:20:32;;;;;;;2.97;0.90;;;;;;;3.70;71.36;95156.06;5008116;28;20627;-69
2021/12/04 01:22:59;;;;;;;0.50;0.50;;;;;;;3.74;71.52;95149.56;5008381;28;20210;-69
2021/12/04 01:25:25;;;;;;;0.40;0.40;;;;;;;3.75;71.33;95156.38;5008794;28;20195;-69
2021/12/04 01:27:53;;;;;;;0.70;0.40;;;;;;;3.90;71.17;95152.16;5007817;28;20878;-69
2021/12/04 01:30:20;;;;;;;0.70;0.70;;;;;;;3.64;71.69;95143.69;5008543;28;20230;-69
2021/12/04 01:32:46;;;;;;;3.90;0.90;;;;;;;3.75;71.39;95145.94;5007925;28;20198;-69
2021/12/04 01:35:13;;;;;;;0.90;0.50;;;;;;;3.79;71.84;95141.25;5010576;28;20205;-69
2021/12/04 01:37:39;;;;;;;1.70;0.97;;;;;;;3.74;72.09;95139.13;5010109;28;20209;-69
2021/12/04 01:40:08;;;;;;;0.83;0.80;;;;;;;3.92;71.82;95131.97;5011323;28;20252;-69
2021/12/04 01:42:36;;;;;;;0.40;0.40;;;;;;;3.79;71.07;95126.44;5009888;28;20218;-68
2021/12/04 01:45:07;;;;;;;1.07;1.00;;;;;;;4.14;72.25;95114.81;5017250;28;20254;-68
2021/12/04 01:47:33;;;;;;;1.43;0.60;;;;;;;3.79;70.92;95110.81;5017503;28;20574;-71
2021/12/04 01:50:01;;;;;;;1.53;1.13;;;;;;;3.79;71.34;95105.59;5011874;28;20222;-70
2021/12/04 01:52:28;;;;;;;0.40;0.40;;;;;;;3.96;71.32;95091.56;5009982;28;20216;-70
2021/12/04 01:54:55;;;;;;;1.20;0.70;;;;;;;3.91;72.96;95086.03;5009968;28;20212;-70
2021/12/04 01:57:22;;;;;;;0.83;0.57;;;;;;;3.94;71.38;95085.69;5010211;28;20201;-70
2021/12/04 01:59:48;;;;;;;0.60;0.60;;;;;;;3.83;71.02;95080.00;5009664;28;20256;-71
2021/12/04 02:02:16;;;;;;;0.83;0.70;;;;;;;4.09;71.88;95078.84;5017896;28;20202;-70
2021/12/04 02:04:43;;;;;;;0.30;0.30;;;;;;;4.03;70.90;95082.09;5009846;28;20225;-70
2021/12/04 02:07:11;;;;;;;0.37;0.37;;;;;;;4.00;70.12;95077.22;5010401;28;20213;-70
2021/12/04 02:09:38;;;;;;;1.03;0.63;;;;;;;3.68;70.27;95074.66;5009350;28;20214;-70
2021/12/04 02:12:07;;;;;;;0.60;0.60;;;;;;;3.94;71.58;95067.47;5010200;28;20217;-70
2021/12/04 02:14:34;;;;;;;0.60;0.60;;;;;;;3.94;71.11;95061.44;5009513;28;20213;-70
2021/12/04 02:17:01;;;;;;;0.40;0.40;;;;;;;4.01;70.10;95058.03;5010222;28;20213;-69
2021/12/04 02:19:30;;;;;;;0.53;0.53;;;;;;;4.25;70.04;95050.13;5009623;28;20206;-68
2021/12/04 02:21:57;;;;;;;0.50;0.50;;;;;;;4.10;69.84;95051.81;5014549;28;20580;-69
2021/12/04 02:24:24;;;;;;;0.70;0.70;;;;;;;3.87;74.27;95060.47;5012822;28;20205;-67
2021/12/04 02:26:52;;;;;;;0.40;0.40;;;;;;;4.10;71.92;95066.63;5015601;28;20206;-69
2021/12/04 02:29:18;;;;;;;0.30;0.30;;;;;;;4.04;72.17;95057.69;5016197;28;20222;-68
2021/12/04 02:31:47;;;;;;;2.57;0.80;;;;;;;4.03;73.64;95063.06;5010279;28;20241;-69
2021/12/04 02:34:19;;;;;;;0.40;0.40;;;;;;;3.98;77.71;95063.53;5013116;28;20678;-69
2021/12/04 02:36:46;;;;;;;0.50;0.50;;;;;;;3.37;82.82;95064.25;5015816;28;20229;-69
2021/12/04 02:39:22;;;;;;;0.50;0.50;;;;;;;3.62;85.79;95057.06;5009899;28;20202;-68
2021/12/04 02:41:49;;;;;;;0.40;0.40;;;;;;;3.27;87.64;95045.34;5017672;28;20783;-68
2021/12/04 02:44:15;;;;;;;0.60;0.60;;;;;;;3.39;88.59;95038.88;5017471;28;20209;-68
2021/12/04 02:46:42;;;;;;;1.60;1.03;;;;;;;3.35;89.66;95032.38;5017377;28;20198;-68
2021/12/04 02:49:12;;;;;;;0.30;0.30;;;;;;;3.29;89.75;95022.59;5014086;28;20210;-69
2021/12/04 02:51:38;;;;;;;0.30;0.30;;;;;;;3.40;89.64;95019.66;5013128;28;20230;-69
2021/12/04 02:54:05;;;;;;;0.50;0.50;;;;;;;3.32;90.68;95012.69;5013215;28;20206;-68
2021/12/04 02:56:33;;;;;;;0.83;0.83;;;;;;;3.70;90.06;94997.19;5013089;28;20198;-69
2021/12/04 02:59:02;;;;;;;0.63;0.53;;;;;;;3.58;89.90;94986.44;5015522;28;20241;-69
2021/12/04 03:01:29;;;;;;;0.87;0.73;;;;;;;3.39;90.61;94987.59;5012984;28;20228;-69
2021/12/04 03:04:06;;;;;;;0.30;0.30;;;;;;;4.09;89.44;94972.00;5015375;28;20206;-69
2021/12/04 03:06:39;;;;;;;2.37;0.43;;;;;;;4.02;90.07;94960.63;5020257;28;20679;-69
2021/12/04 03:09:06;;;;;;;0.50;0.50;;;;;;;3.68;90.70;94964.47;5013130;28;20206;-69
2021/12/04 03:11:34;;;;;;;2.43;0.97;;;;;;;3.70;91.43;94963.31;5012366;28;20572;-69
2021/12/04 03:14:01;;;;;;;0.43;0.43;;;;;;;3.63;90.94;94959.75;5012904;28;20203;-69
2021/12/04 03:16:27;;;;;;;0.60;0.60;;;;;;;3.62;91.27;94961.72;5012552;28;20202;-69
2021/12/04 03:18:54;;;;;;;0.83;0.60;;;;;;;3.62;91.84;94943.50;5012843;28;20221;-69
2021/12/04 03:21:20;;;;;;;0.73;0.73;;;;;;;3.63;91.85;94944.13;5011543;28;20218;-69
2021/12/04 03:23:54;;;;;;;1.67;0.87;;;;;;;3.61;92.62;94945.25;5012597;28;20210;-69
2021/12/04 03:26:21;;;;;;;1.20;0.73;;;;;;;3.78;92.72;94945.06;5015474;28;20210;-69
2021/12/04 03:28:50;;;;;;;0.70;0.70;;;;;;;3.75;93.25;94934.97;5012463;28;20705;-69
2021/12/04 03:31:20;;;;;;;0.43;0.43;;;;;;;3.47;93.96;94935.53;5012063;28;20237;-69
2021/12/04 03:41:59;;;;;;;0.70;0.70;;;;;;;3.83;93.75;94923.69;5013488;28;20245;-69
2021/12/04 03:44:27;;;;;;;1.53;1.13;;;;;;;4.03;94.31;94909.31;5012066;28;20202;-69
2021/12/04 03:46:53;;;;;;;0.50;0.50;;;;;;;3.81;93.57;94905.63;5010982;28;20203;-69
2021/12/04 03:49:20;;;;;;;2.00;0.90;;;;;;;3.84;94.15;94902.69;5012193;28;20209;-69
2021/12/04 03:51:46;;;;;;;0.40;0.40;;;;;;;3.87;94.25;94904.97;5011185;28;20229;-69
2021/12/04 03:54:13;;;;;;;0.50;0.50;;;;;;;3.80;94.43;94901.41;5011702;28;20206;-69
2021/12/04 03:56:39;;;;;;;0.83;0.80;;;;;;;3.69;96.09;94893.97;5011875;28;20202;-69
2021/12/04 03:59:06;;;;;;;0.50;0.40;;;;;;;3.87;95.26;94894.56;5011984;28;20205;-69
2021/12/04 04:01:34;;;;;;;0.47;0.47;;;;;;;4.12;94.95;94893.44;5011520;28;20226;-69
2021/12/04 04:04:00;;;;;;;0.73;0.73;;;;;;;3.90;95.03;94888.19;5011581;28;20581;-69
2021/12/04 04:06:27;;;;;;;0.60;0.60;;;;;;;3.92;95.95;94892.25;5011652;28;20697;-69
2021/12/04 04:08:53;;;;;;;1.20;1.10;;;;;;;3.90;95.13;94888.19;5011854;28;20214;-69
2021/12/04 04:11:20;;;;;;;3.93;1.27;;;;;;;4.10;94.77;94890.22;5011483;28;20227;-69
2021/12/04 04:13:47;;;;;;;2.23;1.03;;;;;;;3.93;94.74;94886.03;5011258;28;20206;-69
2021/12/04 04:16:14;;;;;;;0.43;0.40;;;;;;;4.18;94.32;94884.94;5011417;28;20588;-69
2021/12/04 04:18:42;;;;;;;1.80;1.37;;;;;;;4.20;94.65;94875.19;5011225;28;20217;-69
2021/12/04 04:21:08;;;;;;;1.13;0.60;;;;;;;3.93;95.16;94867.78;5017944;28;20272;-69
2021/12/04 04:23:35;;;;;;;0.40;0.40;;;;;;;4.03;95.05;94868.41;5011167;28;20207;-69
2021/12/04 04:26:01;;;;;;;0.97;0.67;;;;;;;3.86;95.67;94866.06;5011655;28;20216;-69
2021/12/04 04:28:28;;;;;;;0.60;0.60;;;;;;;4.07;95.08;94859.25;5011165;28;20905;-69
2021/12/04 04:30:54;;;;;;;6.73;1.07;;;;;;;3.97;94.73;94856.09;5011973;28;20240;-69
2021/12/04 04:33:21;;;;;;;0.83;0.70;;;;;;;3.72;95.76;94851.94;5010710;28;20209;-69
2021/12/04 04:36:01;;;;;;;0.40;0.40;;;;;;;3.93;96.27;94846.94;5011134;28;20577;-69
2021/12/04 04:38:35;;;;;;;0.70;0.70;;;;;;;3.67;96.59;94841.22;5011215;28;20217;-69
2021/12/04 05:00:32;;;;;;;3.00;1.13;;;;;;;3.93;97.03;94818.28;5014370;28;20653;-68
2021/12/04 05:11:18;;;;;;;0.60;0.60;;;;;;;4.06;97.12;94809.91;5010772;28;20229;-68
2021/12/04 05:13:45;;;;;;;0.80;0.80;;;;;;;3.97;97.43;94809.19;5010159;28;20201;-68
2021/12/04 05:16:13;;;;;;;2.30;1.10;;;;;;;3.91;97.76;94796.81;5010627;28;20206;-69
2021/12/04 05:18:44;;;;;;;3.03;1.83;;;;;;;4.21;97.63;94788.16;5010470;28;20700;-69
2021/12/04 05:21:13;;;;;;;7.67;1.73;;;;;;;4.14;97.57;94782.03;5009888;28;20213;-69
2021/12/04 05:23:44;;;;;;;2.47;1.60;;;;;;;4.22;97.99;94778.56;5014673;28;20209;-69
2021/12/04 05:26:13;;;;;;;2.10;1.37;;;;;;;4.21;97.40;94782.94;5010283;28;20747;-69
2021/12/04 05:28:40;;;;;;;2.50;1.77;;;;;;;4.20;96.96;94781.34;5010163;28;20750;-68
2021/12/04 05:31:07;;;;;;;5.60;1.40;;;;;;;4.13;97.56;94784.81;5010181;28;20261;-68
2021/12/04 05:33:34;;;;;;;4.70;1.33;;;;;;;4.25;97.25;94771.19;5009829;28;20674;-68
2021/12/04 05:36:01;;;;;;;1.63;1.33;;;;;;;4.13;97.78;94764.75;5009969;28;20559;-68
2021/12/04 05:38:27;;;;;;;0.90;0.90;;;;;;;4.28;97.31;94752.59;5010240;28;20214;-68
2021/12/04 05:41:00;;;;;;;1.20;1.10;;;;;;;4.59;97.30;94750.69;5010104;28;20247;-69
2021/12/04 05:43:28;;;;;;;2.90;1.37;;;;;;;4.30;97.26;94748.00;4994600;28;20221;-70
2021/12/04 05:46:01;;;;;;;0.77;0.70;;;;;;;4.69;97.08;94746.03;4989952;28;20296;-69
2021/12/04 05:48:34;;;;;;;2.07;1.20;;;;;;;4.37;97.45;94738.50;4990522;28;20233;-69
2021/12/04 05:54:01;;;;;;;3.20;1.47;;;;;;;4.64;97.46;94745.75;4993194;28;20214;-69
2021/12/04 05:56:32;;;;;;;2.13;1.30;;;;;;;4.67;98.59;94733.19;4987895;28;20220;-69
2021/12/04 05:59:00;;;;;;;3.80;1.43;;;;;;;4.58;98.08;94743.84;4995663;28;20205;-69
2021/12/04 06:01:30;;;;;;;1.23;0.70;;;;;;;4.65;98.64;94734.34;4988926;28;20218;-69
2021/12/04 06:03:58;;;;;;;4.10;0.80;;;;;;;4.28;99.70;94742.97;4986990;28;20207;-68
2021/12/04 06:06:26;;;;;;;1.43;1.20;;;;;;;4.62;99.06;94750.34;4985458;28;20213;-68
2021/12/04 06:08:54;;;;;;;1.30;1.20;;;;;;;4.57;99.67;94734.41;4992987;28;20982;-68
2021/12/04 06:11:21;;;;;;;1.60;1.50;;;;;;;4.65;99.33;94742.19;4990634;28;20718;-69
2021/12/04 06:13:49;;;;;;;4.63;0.93;;;;;;;4.78;99.77;94744.97;4984382;28;20207;-65
2021/12/04 06:16:17;;;;;;;0.37;0.30;;;;;;;4.70;99.31;94737.22;4977809;28;20210;-67
2021/12/04 06:18:46;;;;;;;1.07;0.97;;;;;;;4.73;99.70;94736.88;4977294;28;20214;-65
2021/12/04 06:23:57;;;;;;;0.47;0.47;;;;;;;4.66;99.42;94730.72;4979291;28;20256;-66
2021/12/04 06:26:24;;;;;;;0.60;0.60;;;;;;;4.76;99.01;94726.06;4980279;28;20585;-67
2021/12/04 06:28:52;;;;;;;1.13;0.80;;;;;;;4.83;100.00;94728.59;4991126;28;20213;-67
2021/12/04 06:31:19;;;;;;;0.77;0.77;;;;;;;4.73;99.79;94721.22;4982820;28;20225;-66
2021/12/04 06:33:45;;;;;;;1.23;0.87;;;;;;;4.48;100.00;94728.47;4985972;28;20207;-67
2021/12/04 06:36:12;;;;;;;1.40;1.03;;;;;;;4.76;99.89;94726.06;4978560;28;20210;-66
2021/12/04 06:38:38;;;;;;;1.10;1.00;;;;;;;4.92;98.93;94724.91;4980681;28;20700;-67
2021/12/04 06:41:06;;;;;;;0.80;0.80;;;;;;;5.09;98.65;94722.94;4981373;28;20356;-66
2021/12/04 06:43:34;;;;;;;1.83;0.83;;;;;;;5.09;99.48;94726.38;4981762;28;20207;-67
2021/12/04 06:46:04;;;;;;;0.43;0.43;;;;;;;5.03;99.71;94724.47;4983688;28;20304;-66
2021/12/04 06:48:44;;;;;;;1.47;1.07;;;;;;;5.08;100.00;94727.34;4978242;28;20215;-66
2021/12/04 06:51:21;;;;;;;0.80;0.80;;;;;;;5.06;99.67;94731.94;4977779;28;20428;-66
2021/12/04 06:53:52;;;;;;;0.70;0.70;;;;;;;4.92;99.82;94726.72;4978742;28;20296;-66
2021/12/04 06:56:21;;;;;;;0.87;0.87;;;;;;;4.87;99.72;94710.78;4988628;28;20231;-67
2021/12/04 06:58:47;;;;;;;5.87;1.37;;;;;;;4.94;99.55;94709.91;4977176;28;20207;-67
2021/12/04 07:01:15;;;;;;;1.40;0.90;;;;;;;5.04;100.00;94710.44;4980358;28;20238;-67
2021/12/04 07:03:43;;;;;;;1.10;1.00;;;;;;;5.06;99.95;94712.84;4975657;28;20478;-67
2021/12/04 07:06:09;;;;;;;0.87;0.87;;;;;;;4.94;100.00;94707.28;4985132;28;20922;-67
2021/12/04 07:08:36;;;;;;;0.53;0.53;;;;;;;5.08;99.60;94709.09;4987743;28;20218;-67
2021/12/04 07:11:04;;;;;;;0.80;0.80;;;;;;;4.84;100.00;94706.72;4976875;28;20234;-68
2021/12/04 07:13:31;;;;;;;1.40;1.13;;;;;;;5.09;100.00;94697.66;4977643;28;21050;-66
2021/12/04 07:16:08;;;;;;;1.30;0.93;;;;;;;5.04;100.00;94694.78;4984541;28;20206;-66
2021/12/04 07:18:38;;;;;;;2.17;1.03;;;;;;;5.31;100.00;94688.91;4976794;28;20207;-67
2021/12/04 07:21:04;;;;;;;1.40;1.23;;;;;;;4.98;100.00;94698.09;4976167;28;20273;-67
2021/12/04 07:23:31;;;;;;;1.00;0.50;;;;;;;5.27;100.00;94687.66;4976010;28;20218;-66
2021/12/04 07:25:58;;;;;;;0.67;0.67;;;;;;;5.26;99.62;94683.41;4985996;28;20306;-67
2021/12/04 07:28:25;;;;;;;1.10;0.90;;;;;;;5.23;100.00;94683.78;4983920;28;20569;-67
2021/12/04 07:30:52;;;;;;;0.83;0.77;;;;;;;5.15;100.00;94678.63;4979905;28;20563;-66
2021/12/04 07:33:18;;;;;;;1.80;1.00;;;;;;;5.26;100.00;94680.78;4980147;28;20222;-67
2021/12/04 07:35:46;;;;;;;0.50;0.40;;;;;;;5.51;100.00;94676.84;4981263;28;20581;-67
2021/12/04 07:38:14;;;;;;;0.40;0.40;;;;;;;5.19;100.00;94669.44;4980973;28;20199;-67
2021/12/04 07:40:40;;;;;;;0.63;0.63;;;;;;;5.39;100.00;94678.34;4981547;28;20242;-66
2021/12/04 07:43:07;;;;;;;0.40;0.40;;;;;;;5.34;100.00;94678.06;4981607;28;20207;-67
2021/12/04 07:45:34;;;;;;;1.20;0.87;;;;;;;5.26;100.00;94682.63;4980167;28;20230;-67
2021/12/04 07:48:00;;;;;;;0.50;0.50;;;;;;;5.39;100.00;94667.09;4980330;28;20298;-66
2021/12/04 07:50:27;;;;;;;0.40;0.40;;;;;;;5.36;99.54;94673.50;4983686;28;20226;-67
2021/12/04 07:52:55;;;;;;;1.27;1.17;;;;;;;5.55;100.00;94665.88;4979840;28;20230;-66
2021/12/04 07:55:22;;;;;;;5.43;1.50;;;;;;;5.20;100.00;94668.47;4978610;28;20457;-68
2021/12/04 07:57:49;;;;;;;1.13;0.97;;;;;;;5.39;99.77;94670.50;4980050;28;20410;-66
2021/12/04 08:00:17;;;;;;;0.40;0.40;;;;;;;5.43;100.00;94680.41;4984021;28;20230;-67
2021/12/04 08:02:44;;;;;;;0.53;0.53;;;;;;;5.47;99.89;94670.38;4995351;28;20972;-67
2021/12/04 08:05:11;;;;;;;1.93;0.70;;;;;;;5.48;100.00;94672.00;4985445;28;20198;-66
2021/12/04 08:07:38;;;;;;;0.53;0.53;;;;;;;5.61;100.00;94669.53;4985122;28;20214;-66
2021/12/04 08:10:08;;;;;;;0.80;0.80;;;;;;;5.81;100.00;94668.78;4979002;28;20234;-67
2021/12/04 08:12:36;;;;;;;1.57;0.57;;;;;;;5.45;100.00;94672.38;4978485;28;20692;-67
2021/12/04 08:15:03;;;;;;;0.40;0.40;;;;;;;5.44;100.00;94670.75;4982928;28;20792;-66
2021/12/04 08:17:30;;;;;;;0.50;0.50;;;;;;;5.59;99.98;94650.66;4987378;28;20701;-67
2021/12/04 08:19:56;;;;;;;0.97;0.77;;;;;;;5.63;100.00;94670.19;4977314;28;20226;-66
2021/12/04 08:22:23;;;;;;;1.37;1.27;;;;;;;5.76;100.00;94658.06;4983106;28;20207;-67
2021/12/04 08:24:49;;;;;;;1.60;1.23;;;;;;;5.73;100.00;94660.25;4989830;28;20237;-67
2021/12/04 08:27:18;;;;;;;1.07;0.80;;;;;;;6.04;100.00;94655.53;4985219;28;20203;-67
2021/12/04 08:29:45;;;;;;;1.53;1.20;;;;;;;5.84;100.00;94655.38;4979942;28;20203;-68
2021/12/04 08:32:12;;;;;;;8.73;1.07;;;;;;;5.94;100.00;94657.66;4986650;28;20219;-67
2021/12/04 08:34:39;;;;;;;2.13;1.50;;;;;;;5.88;100.00;94654.00;4986038;28;20697;-67
2021/12/04 08:37:06;;;;;;;0.60;0.60;;;;;;;5.98;100.00;94658.91;4981360;28;20195;-68
2021/12/04 08:39:33;;;;;;;3.37;1.23;;;;;;;5.75;100.00;94655.63;4980503;28;20222;-67
2021/12/04 08:42:00;;;;;;;0.63;0.63;;;;;;;5.68;100.00;94657.38;4979603;28;20211;-67
2021/12/04 08:44:29;;;;;;;3.30;0.80;;;;;;;6.09;100.00;94654.75;4983863;28;20225;-67
2021/12/04 08:46:56;;;;;;;0.60;0.60;;;;;;;6.00;100.00;94664.75;4979951;28;20221;-68
2021/12/04 08:49:23;;;;;;;0.60;0.60;;;;;;;5.83;100.00;94655.53;4980087;28;20214;-67
2021/12/04 08:51:50;;;;;;;0.50;0.50;;;;;;;6.17;100.00;94652.03;4982626;28;20783;-67
2021/12/04 08:54:16;;;;;;;1.07;0.97;;;;;;;6.09;100.00;94644.31;4985084;28;20195;-68
2021/12/04 08:56:43;;;;;;;0.60;0.60;;;;;;;6.29;100.00;94655.75;4983751;28;20207;-68
2021/12/04 08:59:09;;;;;;;1.07;0.87;;;;;;;6.10;100.00;94656.38;4979778;28;20207;-68
2021/12/04 09:01:39;;;;;;;0.40;0.40;;;;;;;6.36;100.00;94653.97;4981285;28;20234;-67
2021/12/04 09:04:09;;;;;;;0.97;0.87;;;;;;;6.42;100.00;94647.22;4979306;28;20203;-67
2021/12/04 09:06:37;;;;;;;1.53;1.30;;;;;;;6.52;100.00;94655.50;4981888;28;20791;-67
2021/12/04 09:09:06;;;;;;;2.60;1.73;;;;;;;6.63;100.00;94644.53;4982044;28;20203;-67
2021/12/04 09:11:36;;;;;;;0.43;0.43;;;;;;;6.57;100.00;94646.09;4980206;28;20231;-67
2021/12/04 09:14:05;;;;;;;0.87;0.87;;;;;;;6.45;100.00;94645.00;4980733;28;20205;-67
2021/12/04 09:16:32;;;;;;;0.57;0.57;;;;;;;6.34;100.00;94642.91;4979344;28;20679;-67
2021/12/04 09:19:00;;;;;;;0.63;0.53;;;;;;;6.65;100.00;94639.91;4981404;28;20210;-68
2021/12/04 09:21:28;;;;;;;0.30;0.30;;;;;;;6.72;100.00;94641.56;4974074;28;20223;-68
2021/12/04 09:24:03;;;;;;;0.30;0.30;;;;;;;6.83;100.00;94641.81;4985762;28;20203;-68
2021/12/04 09:26:39;;;;;;;0.40;0.40;;;;;;;6.73;100.00;94641.38;4992374;28;20277;-68
2021/12/04 09:29:13;;;;;;;0.70;0.57;;;;;;;6.66;100.00;94637.09;4982054;28;20206;-68
2021/12/04 09:31:57;;;;;;;0.73;0.73;;;;;;;6.97;100.00;94633.03;4984005;28;20219;-67
2021/12/04 09:34:50;;;;;;;0.60;0.50;;;;;;;7.02;100.00;94635.09;4986980;28;21043;-67
2021/12/04 09:40:33;;;;;;;1.10;0.50;;;;;;;7.07;100.00;94632.69;4983060;28;20371;-68
2021/12/04 10:02:22;;;;;;;0.83;0.60;;;;;;;7.20;100.00;94575.13;4981544;28;20202;-68
2021/12/04 10:05:16;;;;;;;0.47;0.47;;;;;;;7.51;100.00;94587.53;4983016;28;20234;-67
2021/12/04 10:13:49;;;;;;;1.00;0.90;;;;;;;7.56;100.00;94586.91;4983511;28;20319;-68
2021/12/04 10:19:22;;;;;;;0.53;0.53;;;;;;;7.91;100.00;94569.00;4977904;28;20841;-67
2021/12/04 10:32:00;;;;;;;2.97;0.40;;;;;;;7.98;100.00;94569.84;4961773;28;20609;-68
2021/12/04 10:33:40;;;;;;;0.30;0.30;;;;;;;8.27;100.00;94548.44;4981439;28;20281;-67
2021/12/04 10:36:07;;;;;;;0.50;0.50;;;;;;;8.21;100.00;94530.09;4976302;28;20502;-68
2021/12/04 10:38:40;;;;;;;0.77;0.77;;;;;;;8.09;100.00;94536.94;4977789;28;20203;-67
2021/12/04 10:41:09;;;;;;;0.97;0.87;;;;;;;8.27;100.00;94529.28;4977928;28;20239;-68
2021/12/04 10:43:36;;;;;;;1.13;0.63;;;;;;;8.11;100.00;94525.25;4976525;28;20203;-67
2021/12/04 10:46:12;;;;;;;0.97;0.70;;;;;;;8.29;100.00;94528.06;4981055;28;20773;-68
2021/12/04 10:48:46;;;;;;;1.17;0.53;;;;;;;8.31;100.00;94525.25;4977328;28;20641;-67
2021/12/04 10:51:22;;;;;;;0.70;0.70;;;;;;;8.37;100.00;94508.69;4982587;28;20302;-68
2021/12/04 10:53:50;;;;;;;2.77;0.60;;;;;;;8.48;100.00;94506.25;4976478;28;20230;-67
2021/12/04 10:56:35;;;;;;;0.93;0.50;;;;;;;8.61;100.00;94512.25;4981871;28;20207;-68
2021/12/04 10:59:24;;;;;;;0.23;0.23;;;;;;;8.37;100.00;94500.81;4982199;28;20211;-67
2021/12/04 11:02:10;;;;;;;0.33;0.33;;;;;;;8.56;100.00;94493.69;4981494;28;20226;-67
2021/12/04 11:04:42;;;;;;;0.50;0.50;;;;;;;8.68;100.00;94497.31;4989721;28;20210;-68
2021/12/04 11:18:54;;;;;;;0.80;0.53;;;;;;;9.09;98.69;94458.31;4981380;28;20206;-68
2021/12/04 11:36:03;;;;;;;0.27;0.27;;;;;;;9.02;98.43;94433.09;4986987;28;20210;-67
2021/12/04 11:38:29;;;;;;;1.33;0.40;;;;;;;9.19;98.14;94432.41;4987405;28;20203;-68
2021/12/04 11:43:57;;;;;;;0.20;0.20;;;;;;;9.63;97.09;94442.78;4989164;28;20257;-68
2021/12/04 11:46:29;;;;;;;1.30;0.60;;;;;;;9.75;97.23;94426.91;4982804;28;20273;-68
2021/12/04 11:48:59;;;;;;;0.23;0.23;;;;;;;9.47;97.40;94422.28;4980843;28;20290;-68
2021/12/04 11:51:27;;;;;;;0.87;0.87;;;;;;;9.58;97.70;94432.09;4980869;28;20223;-68
2021/12/04 11:53:55;;;;;;;0.40;0.40;;;;;;;9.97;95.97;94430.78;4980051;28;20329;-68
2021/12/04 11:56:24;;;;;;;0.70;0.40;;;;;;;9.91;95.90;94436.88;4981516;28;20210;-68
2021/12/04 11:58:53;;;;;;;0.70;0.70;;;;;;;9.79;95.80;94430.72;4988191;28;20202;-67
2021/12/04 12:01:30;;;;;;;2.40;1.00;;;;;;;10.07;95.17;94423.19;4980062;28;20953;-67
2021/12/04 12:03:59;;;;;;;1.73;1.03;;;;;;;10.10;94.44;94428.00;4979833;28;20207;-68
2021/12/04 12:06:31;;;;;;;0.83;0.50;;;;;;;10.15;94.30;94425.53;4979830;28;21369;-68
2021/12/04 12:09:06;;;;;;;0.80;0.70;;;;;;;10.35;93.15;94421.69;4980531;28;20203;-68
2021/12/04 12:11:33;;;;;;;1.10;0.30;;;;;;;10.16;93.45;94424.53;4979322;28;20317;-67
2021/12/04 12:14:05;;;;;;;0.40;0.40;;;;;;;10.17;93.51;94425.31;4979690;28;20234;-67
2021/12/04 12:16:38;;;;;;;0.30;0.30;;;;;;;10.26;93.66;94419.56;4980371;28;20243;-67
2021/12/04 12:19:08;;;;;;;0.90;0.50;;;;;;;10.19;93.53;94410.91;4980911;28;20218;-68
2021/12/04 12:21:49;;;;;;;0.40;0.40;;;;;;;10.20;93.22;94409.91;4980801;28;20230;-68
2021/12/04 12:27:18;;;;;;;0.47;0.47;;;;;;;10.31;92.77;94401.28;4975783;28;20268;-68
2021/12/04 12:38:16;;;;;;;0.30;0.30;;;;;;;10.22;91.67;94384.19;4981616;28;20218;-67
2021/12/04 12:40:43;;;;;;;0.20;0.20;;;;;;;10.07;92.60;94385.53;4979987;28;20750;-68
2021/12/04 12:43:13;;;;;;;0.40;0.40;;;;;;;10.48;91.55;94379.41;4979185;28;20209;-68
2021/12/04 12:45:40;;;;;;;0.40;0.40;;;;;;;10.16;90.98;94384.25;4984422;28;20206;-67
2021/12/04 12:48:10;;;;;;;0.67;0.40;;;;;;;10.73;91.30;94372.22;4981087;28;20218;-68
2021/12/04 12:50:41;;;;;;;0.40;0.40;;;;;;;10.47;90.99;94379.63;4979354;28;21146;-68
2021/12/04 12:53:10;;;;;;;0.67;0.50;;;;;;;10.29;91.92;94374.38;4978758;28;20226;-68
2021/12/04 12:55:38;;;;;;;0.30;0.30;;;;;;;10.21;91.61;94374.66;4980220;28;20211;-68
2021/12/04 12:58:31;;;;;;;0.33;0.33;;;;;;;10.50;90.04;94363.38;4981063;28;20207;-68
2021/12/04 13:12:21;;;;;;;0.67;0.67;;;;;;;10.11;91.75;94382.25;4981694;28;20214;-68
2021/12/04 13:14:51;;;;;;;0.63;0.53;;;;;;;10.22;91.67;94370.19;4981568;28;20326;-68
2021/12/04 13:17:20;;;;;;;0.63;0.63;;;;;;;10.12;91.86;94376.00;4980624;28;20265;-67
2021/12/04 13:19:51;;;;;;;0.47;0.47;;;;;;;10.32;91.96;94381.03;4979003;28;20298;-68
2021/12/04 13:22:20;;;;;;;0.40;0.40;;;;;;;10.42;91.55;94364.50;4984860;28;20222;-68
2021/12/04 13:24:49;;;;;;;0.60;0.60;;;;;;;10.17;92.27;94380.56;4989107;28;20214;-68
2021/12/04 13:29:45;;;;;;;0.50;0.50;;;;;;;10.08;93.09;94377.44;4983778;28;20289;-67
2021/12/04 13:32:14;;;;;;;0.73;0.73;;;;;;;9.97;93.08;94385.25;4978530;28;20939;-68
2021/12/04 13:34:42;;;;;;;0.50;0.50;;;;;;;9.93;93.05;94379.59;4981608;28;20219;-68
2021/12/04 13:37:12;;;;;;;0.70;0.70;;;;;;;10.13;92.58;94382.03;4979335;28;20199;-68
2021/12/04 13:39:41;;;;;;;2.37;1.07;;;;;;;9.75;93.40;94384.81;4982011;28;20206;-68
2021/12/04 13:42:08;;;;;;;0.50;0.50;;;;;;;9.76;92.94;94388.25;4979073;28;20214;-68
2021/12/04 13:44:35;;;;;;;0.50;0.50;;;;;;;9.71;93.29;94401.22;4980199;28;20210;-68
2021/12/04 13:47:05;;;;;;;0.80;0.60;;;;;;;9.68;93.22;94385.09;4980562;28;20249;-68
2021/12/04 13:49:34;;;;;;;0.73;0.50;;;;;;;9.76;93.44;94383.81;4979650;28;20211;-68
2021/12/04 13:52:04;;;;;;;0.50;0.50;;;;;;;9.76;92.94;94385.63;4979595;28;20207;-68
2021/12/04 13:54:35;;;;;;;1.00;0.40;;;;;;;9.60;93.67;94378.28;4979791;28;20227;-68
2021/12/04 13:57:08;;;;;;;0.60;0.57;;;;;;;9.65;93.36;94381.06;4978853;28;20601;-68
2021/12/04 13:59:35;;;;;;;0.30;0.30;;;;;;;9.32;93.62;94377.13;4977834;28;20622;-68
2021/12/04 14:02:02;;;;;;;0.67;0.60;;;;;;;9.45;93.64;94390.16;4978152;28;20214;-68
2021/12/04 14:04:28;;;;;;;0.60;0.60;;;;;;;9.24;94.31;94382.63;4980508;28;20211;-68
2021/12/04 14:06:57;;;;;;;0.40;0.40;;;;;;;9.42;94.84;94372.16;4985231;28;20213;-68
2021/12/04 14:09:30;;;;;;;0.50;0.50;;;;;;;9.31;94.56;94380.75;4981627;28;21069;-68
2021/12/04 14:11:58;;;;;;;0.93;0.50;;;;;;;9.26;95.61;94370.88;4978051;28;20721;-67
2021/12/04 14:14:28;;;;;;;1.37;0.97;;;;;;;9.36;95.79;94380.94;4977238;28;20223;-68
2021/12/04 14:16:57;;;;;;;0.50;0.50;;;;;;;9.37;95.75;94374.66;4978113;28;21191;-68